Millington, TN (38053)

7:09 PM CDT on July 27, 2016 (GMT -0500)
Lucy | | Change Station

Elev 276 ft 35.31 °N, 89.93 °W | Updated 7 minutes ago

Light Rain
Light Rain Mist
77.4 °F
Feels Like 79 °F
N
0.0
Wind Variable Wind from NW
Gusts 0.0 mph

Today
High -- | Low -- °F
--% Chance of Precip.
Yesterday
High -- | Low -- °F
Precip. -- in
Pressure 29.89 in
Visibility 5.0 miles
Clouds Few 2400 ft
Mostly Cloudy 3300 ft
Overcast 5500 ft
Heat Index 79 °F
Dew Point 77 °F
Humidity 99%
Rainfall 0.28 in
Snow Depth Not available.
6:04 AM 8:06 PM
Last Quarter, 38% visible
METAR KNQA 272350Z 00000KT 5SM -RA BR FEW024 BKN033 OVC055 27/26 A2989
Pressure 29.89 in
Visibility 5.0 miles
Clouds Few 2400 ft
Mostly Cloudy 3300 ft
Overcast 5500 ft
Heat Index 79 °F
Dew Point 77 °F
Humidity 99%
Rainfall 0.28 in
Snow Depth Not available.
6:04 AM 8:06 PM
Last Quarter, 38% visible
METAR KNQA 272350Z 00000KT 5SM -RA BR FEW024 BKN033 OVC055 27/26 A2989

10-Day Weather Forecast

Almanac

Astronomy

Jul. 27, 2016 Rise Set
Actual Time
Civil Twilight
Nautical Twilight
Astronomical Twilight
Moon
Length of Visible Light
Length of Day
Tomorrow will be .
, % of the Moon is Illuminated

Today's Extremes

State Highs State Lows

Community

WunderPhotos

Upload Photos

1,927,963 photos uploaded!

WunderBlog® & News

Nearby

Air Quality

  Air Quality AQ Index Pollutant
Not available.

Snow Depth

Station Depth Elevation

Earthquake Activity

City Distance Mag. Time & Date
Minimum magnitude displayed is 2.5.

Coastal Water Temperatures

Place Temperature

Stations

Nearby Weather Stations

Station Location Temp. Windchill Dew Point Humidity Wind Precip. Elev Updated Type
                   

Watches & Warnings

There are currently no watches in effect.